Terminal Aerodrome Forecast
Issued by NWS

Home | Current Version | Previous Version | Text Only | Print | Product List | Glossary On
Versions: 1 2 3 4 5 6 7 8 9 10 11 12 13 14
000
FTUS43 KICT 231100
TAFSLN
TAF
KSLN 231120Z 2312/2412 17011KT P6SM SKC
     FM231500 19018G26KT P6SM SCT100
     FM240100 17013KT P6SM SCT100
     FM240600 17015KT P6SM BKN100=

USA.gov is the U.S. government's official web portal to all federal, state and local government web resources and services.